DLH458 EDDM-KSFO
Flight info
| Callsign | DLH458 |
|---|---|
| Flight time | N/A |
| Altitude | 34000 |
| Route | INPUD2S INPUD Y102 UPALA Z109 BAMAS L604 GASKA DCT MASEK DCT SPY DCT AMGOD DCT MIMVA L602 NALAX L46 ESHIN N110 ERKIT DCT GOMUP/M082F360 NATA LIBOR/M081F380 DCT BERUS/N0477F380 DCT YFB DCT 63N080W 61N090W 57N100W DCT POLLE DCT WALSH/N0457F400 DCT BOI DCT MRRLO BDEGA4 |
| Aircraft | A333/H-SDE3GHIJ2J3J5M1RVWXY/LB2D1 |
Departure
| Time | 2026-05-07 14:50 |
|---|---|
| Airport | Munich Airport (EDDM) |
Arrival
| Time | N/A |
|---|---|
| Airport | San Francisco International Airport (KSFO) |
| Time | Latitude | Longitude | Altitude | Speed | Heading |
|---|---|---|---|---|---|
| 2026-05-07 14:06 | 48.35306 | 11.79330 | 1481 ft | 0 kts | 263° |
| 2026-05-07 14:06 | 48.35411 | 11.79326 | 1478 ft | 0 kts | 270° |
| 2026-05-07 14:29 | 48.35411 | 11.79328 | 1480 ft | 1 kts | 270° |
| 2026-05-07 14:29 | 48.35411 | 11.79350 | 1479 ft | 2 kts | 270° |
| 2026-05-07 14:29 | 48.35411 | 11.79373 | 1479 ft | 2 kts | 270° |
| 2026-05-07 14:29 | 48.35410 | 11.79395 | 1479 ft | 2 kts | 271° |
| 2026-05-07 14:30 | 48.35410 | 11.79418 | 1479 ft | 2 kts | 272° |
| 2026-05-07 14:30 | 48.35409 | 11.79441 | 1479 ft | 2 kts | 290° |
| 2026-05-07 14:30 | 48.35401 | 11.79459 | 1479 ft | 2 kts | 327° |
| 2026-05-07 14:30 | 48.35388 | 11.79467 | 1479 ft | 2 kts | 358° |
| 2026-05-07 14:31 | 48.35373 | 11.79468 | 1479 ft | 2 kts | 357° |
| 2026-05-07 14:31 | 48.35360 | 11.79469 | 1479 ft | 0 kts | 354° |
| 2026-05-07 14:31 | 48.35359 | 11.79469 | 1479 ft | 0 kts | 354° |
| 2026-05-07 14:36 | 48.35360 | 11.79469 | 1479 ft | 0 kts | 354° |
| 2026-05-07 14:36 | 48.35364 | 11.79469 | 1479 ft | 1 kts | 354° |
| 2026-05-07 14:37 | 48.35375 | 11.79467 | 1479 ft | 0 kts | 354° |
| 2026-05-07 14:37 | 48.35382 | 11.79466 | 1479 ft | 6 kts | 354° |
| 2026-05-07 14:38 | 48.35474 | 11.79450 | 1478 ft | 15 kts | 353° |
| 2026-05-07 14:38 | 48.35578 | 11.79432 | 1478 ft | 14 kts | 354° |
| 2026-05-07 14:38 | 48.35677 | 11.79416 | 1477 ft | 13 kts | 353° |
| 2026-05-07 14:38 | 48.35769 | 11.79401 | 1476 ft | 13 kts | 353° |
| 2026-05-07 14:39 | 48.35859 | 11.79389 | 1476 ft | 10 kts | 7° |
| 2026-05-07 14:39 | 48.35910 | 11.79464 | 1475 ft | 10 kts | 54° |
| 2026-05-07 14:39 | 48.35979 | 11.79495 | 1474 ft | 11 kts | 347° |
| 2026-05-07 14:39 | 48.36058 | 11.79495 | 1473 ft | 10 kts | 356° |
| 2026-05-07 14:40 | 48.36134 | 11.79479 | 1472 ft | 10 kts | 352° |
| 2026-05-07 14:40 | 48.36200 | 11.79506 | 1472 ft | 11 kts | 51° |
| 2026-05-07 14:40 | 48.36224 | 11.79618 | 1471 ft | 11 kts | 81° |
| 2026-05-07 14:40 | 48.36234 | 11.79743 | 1470 ft | 12 kts | 84° |
| 2026-05-07 14:41 | 48.36243 | 11.79876 | 1469 ft | 12 kts | 83° |
| 2026-05-07 14:41 | 48.36254 | 11.80008 | 1468 ft | 13 kts | 83° |
| 2026-05-07 14:41 | 48.36266 | 11.80145 | 1467 ft | 13 kts | 83° |
| 2026-05-07 14:41 | 48.36277 | 11.80292 | 1466 ft | 14 kts | 83° |
| 2026-05-07 14:42 | 48.36288 | 11.80442 | 1466 ft | 14 kts | 84° |
| 2026-05-07 14:42 | 48.36299 | 11.80594 | 1465 ft | 14 kts | 84° |
| 2026-05-07 14:42 | 48.36312 | 11.80754 | 1464 ft | 15 kts | 84° |
| 2026-05-07 14:42 | 48.36324 | 11.80916 | 1463 ft | 16 kts | 83° |
| 2026-05-07 14:43 | 48.36338 | 11.81084 | 1462 ft | 16 kts | 84° |
| 2026-05-07 14:43 | 48.36350 | 11.81256 | 1461 ft | 16 kts | 85° |
| 2026-05-07 14:43 | 48.36362 | 11.81425 | 1461 ft | 15 kts | 83° |
| 2026-05-07 14:43 | 48.36375 | 11.81592 | 1461 ft | 15 kts | 83° |
| 2026-05-07 14:44 | 48.36390 | 11.81754 | 1460 ft | 14 kts | 83° |
| 2026-05-07 14:44 | 48.36398 | 11.81881 | 1460 ft | 8 kts | 90° |
| 2026-05-07 14:44 | 48.36396 | 11.81971 | 1460 ft | 8 kts | 89° |
| 2026-05-07 14:44 | 48.36400 | 11.82052 | 1460 ft | 7 kts | 85° |
| 2026-05-07 14:45 | 48.36416 | 11.82118 | 1460 ft | 6 kts | 48° |
| 2026-05-07 14:45 | 48.36456 | 11.82134 | 1460 ft | 6 kts | 358° |
| 2026-05-07 14:45 | 48.36472 | 11.82132 | 1460 ft | 0 kts | 355° |
| 2026-05-07 14:48 | 48.36474 | 11.82131 | 1460 ft | 2 kts | 355° |
| 2026-05-07 14:48 | 48.36539 | 11.82122 | 1460 ft | 14 kts | 354° |
| 2026-05-07 14:48 | 48.36640 | 11.82103 | 1459 ft | 13 kts | 353° |
| 2026-05-07 14:48 | 48.36684 | 11.82057 | 1459 ft | 6 kts | 276° |
| 2026-05-07 14:49 | 48.36676 | 11.81939 | 1460 ft | 27 kts | 263° |
| 2026-05-07 14:49 | 48.36626 | 11.81304 | 1461 ft | 95 kts | 264° |
| 2026-05-07 14:49 | 48.36527 | 11.79998 | 1467 ft | 153 kts | 264° |
| 2026-05-07 14:49 | 48.36380 | 11.78194 | 1616 ft | 188 kts | 262° |
| 2026-05-07 14:50 | 48.36203 | 11.76240 | 2261 ft | 192 kts | 265° |
| 2026-05-07 14:50 | 48.36028 | 11.74220 | 2912 ft | 203 kts | 264° |
| 2026-05-07 14:50 | 48.35856 | 11.72035 | 3538 ft | 219 kts | 265° |
| 2026-05-07 14:50 | 48.35689 | 11.69684 | 4184 ft | 234 kts | 266° |
| 2026-05-07 14:51 | 48.35590 | 11.67227 | 4906 ft | 245 kts | 274° |
| 2026-05-07 14:51 | 48.35949 | 11.64729 | 5699 ft | 251 kts | 294° |
| 2026-05-07 14:51 | 48.36930 | 11.62572 | 6522 ft | 255 kts | 320° |
| 2026-05-07 14:51 | 48.38418 | 11.61561 | 7186 ft | 221 kts | 352° |
| 2026-05-07 14:52 | 48.39905 | 11.61824 | 7603 ft | 218 kts | 9° |
| 2026-05-07 14:52 | 48.41420 | 11.62323 | 7833 ft | 227 kts | 8° |
| 2026-05-07 14:52 | 48.42995 | 11.62752 | 8114 ft | 232 kts | 2° |
| 2026-05-07 14:52 | 48.44595 | 11.62678 | 8441 ft | 231 kts | 344° |
| 2026-05-07 14:53 | 48.46029 | 11.61660 | 8774 ft | 228 kts | 323° |
| 2026-05-07 14:53 | 48.47437 | 11.60527 | 9178 ft | 232 kts | 334° |
| 2026-05-07 14:53 | 48.48926 | 11.59637 | 9591 ft | 233 kts | 336° |
| 2026-05-07 14:53 | 48.50454 | 11.58810 | 9997 ft | 234 kts | 338° |
| 2026-05-07 14:54 | 48.52008 | 11.58003 | 10399 ft | 235 kts | 338° |
| 2026-05-07 14:54 | 48.53549 | 11.57213 | 10789 ft | 237 kts | 338° |
| 2026-05-07 14:54 | 48.53648 | 11.57162 | 10814 ft | 237 kts | 338° |
| 2026-05-07 14:54 | 48.54149 | 11.56906 | 10944 ft | 237 kts | 338° |
| 2026-05-07 14:55 | 48.55235 | 11.56352 | 11226 ft | 237 kts | 338° |
| 2026-05-07 14:55 | 48.55600 | 11.56166 | 11309 ft | 237 kts | 338° |